LHT6MR EDAZ-EDDB
Flight info
| Callsign | LHT6MR |
|---|---|
| Flight time | 0h 10m |
| Altitude | 17000 |
| Route | BOLBO2N BOLBO DCT KLF |
| Aircraft | A20N/M-SDE2E3FGHIRWXY/LB1 |
Departure
| Time | 2026-05-07 23:21 |
|---|---|
| Airport | Schönhagen Airfield (EDAZ) |
Arrival
| Time | 2026-05-07 23:32 |
|---|---|
| Airport | Berlin Brandenburg Airport (EDDB) |
| Time | Latitude | Longitude | Altitude | Speed | Heading |
|---|---|---|---|---|---|
| 2026-05-07 23:12 | 52.20389 | 13.15060 | 144 ft | 0 kts | 256° |
| 2026-05-07 23:17 | 52.20388 | 13.15058 | 144 ft | 1 kts | 256° |
| 2026-05-07 23:17 | 52.20387 | 13.15037 | 144 ft | 3 kts | 269° |
| 2026-05-07 23:17 | 52.20396 | 13.14999 | 144 ft | 5 kts | 290° |
| 2026-05-07 23:18 | 52.20385 | 13.14967 | 144 ft | 6 kts | 216° |
| 2026-05-07 23:18 | 52.20308 | 13.14962 | 142 ft | 6 kts | 171° |
| 2026-05-07 23:18 | 52.20285 | 13.14968 | 142 ft | 0 kts | 171° |
| 2026-05-07 23:20 | 52.20282 | 13.14969 | 142 ft | 3 kts | 171° |
| 2026-05-07 23:20 | 52.20249 | 13.14978 | 141 ft | 1 kts | 171° |
| 2026-05-07 23:20 | 52.20232 | 13.14988 | 141 ft | 1 kts | 130° |
| 2026-05-07 23:20 | 52.20234 | 13.14995 | 141 ft | 0 kts | 82° |
| 2026-05-07 23:21 | 52.20235 | 13.14996 | 141 ft | 0 kts | 76° |
| 2026-05-07 23:21 | 52.20278 | 13.15276 | 145 ft | 81 kts | 75° |
| 2026-05-07 23:21 | 52.20500 | 13.16659 | 532 ft | 148 kts | 75° |
| 2026-05-07 23:21 | 52.20801 | 13.18596 | 1273 ft | 208 kts | 75° |
| 2026-05-07 23:22 | 52.21191 | 13.21172 | 1999 ft | 262 kts | 76° |
| 2026-05-07 23:22 | 52.21650 | 13.24208 | 2955 ft | 289 kts | 75° |
| 2026-05-07 23:22 | 52.22335 | 13.27492 | 3585 ft | 327 kts | 70° |
| 2026-05-07 23:22 | 52.23142 | 13.31184 | 3874 ft | 354 kts | 70° |
| 2026-05-07 23:23 | 52.23956 | 13.35007 | 3998 ft | 359 kts | 71° |
| 2026-05-07 23:23 | 52.24771 | 13.38866 | 4027 ft | 360 kts | 71° |
| 2026-05-07 23:23 | 52.25589 | 13.42730 | 4026 ft | 360 kts | 71° |
| 2026-05-07 23:23 | 52.26401 | 13.46563 | 4036 ft | 360 kts | 71° |
| 2026-05-07 23:24 | 52.27221 | 13.50436 | 4029 ft | 360 kts | 71° |
| 2026-05-07 23:24 | 52.28048 | 13.54344 | 4000 ft | 359 kts | 71° |
| 2026-05-07 23:24 | 52.28855 | 13.58163 | 3623 ft | 355 kts | 71° |
| 2026-05-07 23:24 | 52.29654 | 13.61957 | 3193 ft | 351 kts | 71° |
| 2026-05-07 23:25 | 52.30443 | 13.65719 | 3056 ft | 350 kts | 71° |
| 2026-05-07 23:25 | 52.31233 | 13.69484 | 3026 ft | 349 kts | 71° |
| 2026-05-07 23:25 | 52.32026 | 13.73255 | 3023 ft | 350 kts | 71° |
| 2026-05-07 23:25 | 52.32811 | 13.76999 | 3007 ft | 351 kts | 71° |
| 2026-05-07 23:26 | 52.33594 | 13.80723 | 3020 ft | 336 kts | 70° |
| 2026-05-07 23:26 | 52.34707 | 13.83908 | 3010 ft | 312 kts | 49° |
| 2026-05-07 23:26 | 52.36381 | 13.85957 | 3019 ft | 292 kts | 25° |
| 2026-05-07 23:26 | 52.38265 | 13.86732 | 3009 ft | 275 kts | 4° |
| 2026-05-07 23:27 | 52.41707 | 13.85246 | 3010 ft | 243 kts | 336° |
| 2026-05-07 23:27 | 52.43089 | 13.83816 | 3011 ft | 227 kts | 316° |
| 2026-05-07 23:27 | 52.43893 | 13.81724 | 3014 ft | 210 kts | 288° |
| 2026-05-07 23:28 | 52.43991 | 13.79453 | 3013 ft | 198 kts | 259° |
| 2026-05-07 23:28 | 52.43560 | 13.77392 | 3012 ft | 187 kts | 249° |
| 2026-05-07 23:28 | 52.43136 | 13.75421 | 3020 ft | 178 kts | 250° |
| 2026-05-07 23:28 | 52.42702 | 13.73556 | 3016 ft | 172 kts | 248° |
| 2026-05-07 23:29 | 52.42263 | 13.71696 | 2877 ft | 180 kts | 248° |
| 2026-05-07 23:29 | 52.41808 | 13.69772 | 2621 ft | 186 kts | 248° |
| 2026-05-07 23:29 | 52.41341 | 13.67800 | 2386 ft | 181 kts | 249° |
| 2026-05-07 23:29 | 52.40896 | 13.65922 | 2124 ft | 170 kts | 249° |
| 2026-05-07 23:30 | 52.40487 | 13.64191 | 1914 ft | 158 kts | 250° |
| 2026-05-07 23:30 | 52.40099 | 13.62554 | 1668 ft | 149 kts | 250° |
| 2026-05-07 23:30 | 52.39737 | 13.61023 | 1478 ft | 143 kts | 250° |
| 2026-05-07 23:30 | 52.39389 | 13.59556 | 1262 ft | 133 kts | 250° |
| 2026-05-07 23:31 | 52.39081 | 13.58256 | 1026 ft | 123 kts | 250° |
| 2026-05-07 23:31 | 52.38800 | 13.57068 | 845 ft | 122 kts | 250° |
| 2026-05-07 23:31 | 52.38494 | 13.55787 | 687 ft | 120 kts | 249° |
| 2026-05-07 23:31 | 52.38196 | 13.54548 | 462 ft | 115 kts | 248° |
| 2026-05-07 23:32 | 52.37910 | 13.53301 | 298 ft | 117 kts | 249° |
| 2026-05-07 23:32 | 52.37630 | 13.52089 | 159 ft | 109 kts | 249° |
| 2026-05-07 23:32 | 52.37443 | 13.51308 | 161 ft | 34 kts | 249° |
| 2026-05-07 23:32 | 52.37355 | 13.50952 | 160 ft | 31 kts | 245° |
| 2026-05-07 23:33 | 52.37329 | 13.50892 | 160 ft | 1 kts | 173° |
| 2026-05-07 23:33 | 52.37314 | 13.50914 | 160 ft | 6 kts | 132° |
| 2026-05-07 23:33 | 52.37302 | 13.51019 | 159 ft | 13 kts | 95° |
| 2026-05-07 23:33 | 52.37286 | 13.51212 | 158 ft | 18 kts | 100° |
| 2026-05-07 23:34 | 52.37242 | 13.51376 | 160 ft | 12 kts | 147° |
| 2026-05-07 23:34 | 52.37152 | 13.51468 | 159 ft | 17 kts | 115° |
| 2026-05-07 23:34 | 52.37188 | 13.51662 | 162 ft | 20 kts | 69° |
| 2026-05-07 23:34 | 52.37239 | 13.51882 | 162 ft | 15 kts | 68° |
| 2026-05-07 23:35 | 52.37271 | 13.52012 | 162 ft | 10 kts | 69° |
| 2026-05-07 23:35 | 52.37237 | 13.52105 | 161 ft | 13 kts | 148° |
| 2026-05-07 23:35 | 52.37148 | 13.52174 | 162 ft | 14 kts | 156° |
| 2026-05-07 23:35 | 52.37130 | 13.52229 | 162 ft | 1 kts | 50° |
| 2026-05-07 23:36 | 52.37134 | 13.52229 | 162 ft | 2 kts | 18° |
| 2026-05-07 23:36 | 52.37152 | 13.52216 | 162 ft | 0 kts | 315° |